createdAt,value
2023-04-09T00:01:02.335Z,101194.18
2023-04-09T00:02:10.529Z,101180.23
2023-04-09T00:03:13.606Z,101181.41
2023-04-09T00:04:16.667Z,101187.89
2023-04-09T00:05:19.584Z,101186.85
2023-04-09T00:06:22.475Z,101182.30
2023-04-09T00:07:25.338Z,101186.89
2023-04-09T00:08:28.401Z,101177.41
2023-04-09T00:09:32.109Z,101178.86
2023-04-09T00:10:35.036Z,101181.09
2023-04-09T00:11:37.924Z,101176.20
2023-04-09T00:12:40.928Z,101184.65
2023-04-09T00:13:43.792Z,101184.02
2023-04-09T00:14:46.624Z,101179.35
2023-04-09T00:15:49.544Z,101174.80
2023-04-09T00:16:52.437Z,101178.94
2023-04-09T00:17:56.320Z,101182.38
2023-04-09T00:18:59.225Z,101187.96
2023-04-09T00:20:02.100Z,101185.02
2023-04-09T00:21:05.690Z,101180.83
2023-04-09T00:22:08.569Z,101181.02
2023-04-09T00:23:12.963Z,101178.77
2023-04-09T00:24:16.192Z,101184.30
2023-04-09T00:25:20.121Z,101178.68
2023-04-09T00:26:23.083Z,101179.19
2023-04-09T00:27:25.962Z,101182.21
2023-04-09T00:28:28.868Z,101176.77
2023-04-09T00:29:31.700Z,101180.18
2023-04-09T00:30:34.584Z,101180.30
2023-04-09T00:31:37.477Z,101182.07
2023-04-09T00:32:40.686Z,101185.98
2023-04-09T00:33:44.124Z,101179.73
2023-04-09T00:34:47.019Z,101179.55
2023-04-09T00:35:50.033Z,101178.85
2023-04-09T00:36:52.971Z,101178.88
2023-04-09T00:37:56.177Z,101176.84
2023-04-09T00:38:59.234Z,101174.42
2023-04-09T00:40:02.216Z,101174.38
2023-04-09T00:41:05.566Z,101170.24
2023-04-09T00:42:08.624Z,101169.67
2023-04-09T00:43:12.137Z,101167.82
2023-04-09T00:44:14.981Z,101170.19
2023-04-09T00:45:17.960Z,101171.43
2023-04-09T00:46:21.197Z,101169.73
2023-04-09T00:47:24.227Z,101170.13
2023-04-09T00:48:27.770Z,101166.33
2023-04-09T00:49:30.978Z,101167.98
2023-04-09T00:50:34.073Z,101165.73
2023-04-09T00:51:37.298Z,101166.10
2023-04-09T00:52:40.326Z,101162.02
2023-04-09T00:53:44.085Z,101157.92
2023-04-09T00:54:50.997Z,101156.06
2023-04-09T00:55:55.855Z,101158.45
2023-04-09T00:56:59.762Z,101149.27
2023-04-09T00:58:03.248Z,101154.36
2023-04-09T00:59:06.346Z,101153.88
2023-04-09T01:00:09.835Z,101153.71
2023-04-09T01:01:12.792Z,101154.77
2023-04-09T01:02:15.756Z,101159.34
2023-04-09T01:03:19.009Z,101155.42
2023-04-09T01:04:23.375Z,101153.92
2023-04-09T01:05:38.542Z,101156.63
2023-04-09T01:07:03.646Z,101149.54
2023-04-09T01:08:28.067Z,101152.82
2023-04-09T01:09:37.201Z,101151.70
2023-04-09T01:10:52.258Z,101162.50
2023-04-09T01:12:02.890Z,101155.47
2023-04-09T01:13:30.870Z,101158.05
2023-04-09T01:14:54.891Z,101153.84
2023-04-09T01:16:01.946Z,101155.51
2023-04-09T01:17:11.625Z,101159.05
2023-04-09T01:18:24.143Z,101166.14
2023-04-09T01:19:58.663Z,101159.48
2023-04-09T01:21:04.951Z,101155.77
2023-04-09T01:22:23.644Z,101161.40
2023-04-09T01:23:45.454Z,101161.36
2023-04-09T01:25:03.657Z,101158.17
2023-04-09T01:26:22.898Z,101159.64
2023-04-09T01:27:42.253Z,101158.60
2023-04-09T01:28:47.948Z,101160.33
2023-04-09T01:29:53.625Z,101169.73
2023-04-09T01:31:03.766Z,101173.87
2023-04-09T01:32:08.030Z,101169.36
2023-04-09T01:33:12.172Z,101173.63
2023-04-09T01:34:16.638Z,101174.54
2023-04-09T01:35:20.411Z,101177.60
2023-04-09T01:36:26.550Z,101174.91
2023-04-09T01:37:29.800Z,101173.09
2023-04-09T01:38:35.345Z,101176.87
2023-04-09T01:39:39.150Z,101177.35
2023-04-09T01:40:42.916Z,101171.52
2023-04-09T01:41:46.970Z,101176.27
2023-04-09T01:42:51.164Z,101174.59
2023-04-09T01:43:55.603Z,101182.77
2023-04-09T01:44:59.436Z,101180.77
2023-04-09T01:46:03.769Z,101179.80
2023-04-09T01:47:08.522Z,101182.50
2023-04-09T01:48:14.208Z,101191.69
2023-04-09T01:49:18.745Z,101192.73
2023-04-09T01:50:22.248Z,101188.30
2023-04-09T01:51:27.402Z,101197.47
2023-04-09T01:52:30.538Z,101194.02
2023-04-09T01:53:33.701Z,101191.00
2023-04-09T01:54:36.569Z,101191.76
2023-04-09T01:55:40.019Z,101196.54
2023-04-09T01:56:47.779Z,101200.41
2023-04-09T01:57:50.934Z,101200.27
2023-04-09T01:58:53.985Z,101196.27
2023-04-09T01:59:57.100Z,101192.79
2023-04-09T02:01:26.625Z,101191.84
2023-04-09T02:02:37.502Z,101191.44
2023-04-09T02:03:51.606Z,101202.30
2023-04-09T02:04:58.846Z,101189.54
2023-04-09T02:06:14.632Z,101196.67
2023-04-09T02:07:30.662Z,101190.70
2023-04-09T02:08:34.939Z,101182.23
2023-04-09T02:09:41.090Z,101191.90
2023-04-09T02:10:53.326Z,101190.02
2023-04-09T02:11:59.026Z,101187.08
2023-04-09T02:13:05.863Z,101195.27
2023-04-09T02:14:11.290Z,101193.94
2023-04-09T02:15:15.588Z,101192.34
2023-04-09T02:16:19.819Z,101189.43
2023-04-09T02:17:23.342Z,101189.44
2023-04-09T02:18:28.849Z,101193.77
2023-04-09T02:19:46.169Z,101193.02
2023-04-09T02:20:49.941Z,101192.70
2023-04-09T02:21:52.768Z,101196.70
2023-04-09T02:22:55.758Z,101193.73
2023-04-09T02:23:58.653Z,101196.23
2023-04-09T02:25:01.776Z,101198.59
2023-04-09T02:26:04.872Z,101198.02
2023-04-09T02:27:08.336Z,101199.97
2023-04-09T02:28:11.228Z,101200.77
2023-04-09T02:29:14.082Z,101199.56
2023-04-09T02:30:16.981Z,101201.89
2023-04-09T02:31:19.849Z,101203.70
2023-04-09T02:32:22.816Z,101201.89
2023-04-09T02:33:26.436Z,101198.91
2023-04-09T02:34:29.827Z,101198.91
2023-04-09T02:35:33.663Z,101199.33
2023-04-09T02:36:36.677Z,101196.27
2023-04-09T02:37:39.537Z,101196.40
2023-04-09T02:38:42.894Z,101197.73
2023-04-09T02:39:45.973Z,101195.98
2023-04-09T02:40:48.843Z,101192.80
2023-04-09T02:41:52.516Z,101193.71
2023-04-09T02:42:55.686Z,101193.27
2023-04-09T02:43:58.541Z,101193.55
2023-04-09T02:45:01.776Z,101190.97
2023-04-09T02:46:08.268Z,101192.17
2023-04-09T02:47:11.432Z,101191.93
2023-04-09T02:48:14.948Z,101190.11
2023-04-09T02:49:19.446Z,101190.55
2023-04-09T02:50:22.353Z,101188.83
2023-04-09T02:51:27.600Z,101186.99
2023-04-09T02:52:30.552Z,101188.03
2023-04-09T02:53:33.441Z,101187.49
2023-04-09T02:54:36.309Z,101185.25
2023-04-09T02:55:39.193Z,101187.90
2023-04-09T02:56:42.186Z,101186.86
2023-04-09T02:57:45.609Z,101187.52
2023-04-09T02:58:51.685Z,101187.15
2023-04-09T02:59:55.717Z,101188.45
2023-04-09T03:00:58.648Z,101187.79
2023-04-09T03:02:01.634Z,101185.70
2023-04-09T03:03:04.856Z,101183.92
2023-04-09T03:04:07.994Z,101183.48
2023-04-09T03:05:11.249Z,101182.66
2023-04-09T03:06:14.254Z,101184.10
2023-04-09T03:07:17.106Z,101183.08
2023-04-09T03:08:20.028Z,101182.16
2023-04-09T03:09:23.032Z,101183.64
2023-04-09T03:10:25.921Z,101185.55
2023-04-09T03:11:29.095Z,101186.84
2023-04-09T03:12:32.181Z,101181.77
2023-04-09T03:13:35.259Z,101185.66
2023-04-09T03:14:38.164Z,101186.41
2023-04-09T03:15:41.703Z,101187.70
2023-04-09T03:16:44.664Z,101189.66
2023-04-09T03:17:47.589Z,101186.09
2023-04-09T03:18:50.658Z,101184.22
2023-04-09T03:19:54.408Z,101186.97
2023-04-09T03:20:57.622Z,101182.40
2023-04-09T03:22:01.182Z,101186.22
2023-04-09T03:23:07.083Z,101185.88
2023-04-09T03:24:14.492Z,101187.08
2023-04-09T03:25:19.778Z,101186.40
2023-04-09T03:26:23.216Z,101183.89
2023-04-09T03:27:26.757Z,101185.52
2023-04-09T03:28:31.418Z,101186.17
2023-04-09T03:29:34.564Z,101179.70
2023-04-09T03:30:37.461Z,101177.29
2023-04-09T03:31:41.931Z,101177.54
2023-04-09T03:32:45.103Z,101178.67
2023-04-09T03:33:49.233Z,101182.19
2023-04-09T03:34:52.224Z,101178.38
2023-04-09T03:35:55.998Z,101173.88
2023-04-09T03:37:05.814Z,101177.15
2023-04-09T03:38:08.736Z,101175.09
2023-04-09T03:39:11.683Z,101180.40
2023-04-09T03:40:17.749Z,101180.52
2023-04-09T03:41:20.658Z,101174.41
2023-04-09T03:42:23.579Z,101174.83
2023-04-09T03:43:27.719Z,101167.12
2023-04-09T03:44:30.823Z,101171.15
2023-04-09T03:45:41.732Z,101171.95
2023-04-09T03:47:01.831Z,101161.77
2023-04-09T03:48:05.105Z,101158.23
2023-04-09T03:49:08.405Z,101157.11
2023-04-09T03:50:15.777Z,101159.88
2023-04-09T03:51:22.879Z,101159.67
2023-04-09T03:52:29.911Z,101160.16
2023-04-09T03:53:42.534Z,101150.61
2023-04-09T03:54:45.442Z,101150.32
2023-04-09T03:55:52.079Z,101155.87
2023-04-09T03:56:59.285Z,101150.00
2023-04-09T03:58:02.195Z,101156.47
2023-04-09T03:59:07.854Z,101163.79
2023-04-09T04:00:14.529Z,101161.77
2023-04-09T04:01:45.065Z,101158.31
2023-04-09T04:02:48.335Z,101163.07
2023-04-09T04:03:51.814Z,101166.14
2023-04-09T04:04:58.381Z,101174.71
2023-04-09T04:06:04.300Z,101177.13
2023-04-09T04:07:15.976Z,101175.73
2023-04-09T04:08:24.515Z,101178.21
2023-04-09T04:09:27.368Z,101172.09
2023-04-09T04:10:34.442Z,101176.36
2023-04-09T04:11:37.943Z,101174.26
2023-04-09T04:12:41.597Z,101169.95
2023-04-09T04:13:49.177Z,101177.66
2023-04-09T04:14:52.032Z,101173.23
2023-04-09T04:16:02.806Z,101176.13
2023-04-09T04:17:05.727Z,101172.98
2023-04-09T04:18:10.333Z,101169.09
2023-04-09T04:19:25.634Z,101166.38
2023-04-09T04:20:28.476Z,101173.69
2023-04-09T04:21:41.854Z,101166.90
2023-04-09T04:22:44.740Z,101169.77
2023-04-09T04:23:47.764Z,101166.36
2023-04-09T04:24:54.111Z,101167.79
2023-04-09T04:25:58.200Z,101165.41
2023-04-09T04:27:07.154Z,101174.95
2023-04-09T04:28:11.395Z,101168.05
2023-04-09T04:29:16.904Z,101171.65
2023-04-09T04:30:25.055Z,101173.91
2023-04-09T04:31:35.059Z,101172.18
2023-04-09T04:32:38.416Z,101172.27
2023-04-09T04:33:44.497Z,101177.91
2023-04-09T04:34:50.590Z,101177.58
2023-04-09T04:36:12.170Z,101178.03
2023-04-09T04:37:17.736Z,101181.13
2023-04-09T04:38:20.794Z,101186.96
2023-04-09T04:39:24.205Z,101185.42
2023-04-09T04:40:31.680Z,101187.74
2023-04-09T04:41:37.685Z,101189.67
2023-04-09T04:42:49.988Z,101190.71
2023-04-09T04:43:52.868Z,101193.79
2023-04-09T04:44:58.415Z,101186.96
2023-04-09T04:46:13.978Z,101183.13
2023-04-09T04:47:16.896Z,101189.70
2023-04-09T04:48:19.805Z,101194.77
2023-04-09T04:49:23.366Z,101188.71
2023-04-09T04:50:27.154Z,101196.68
2023-04-09T04:51:34.654Z,101203.04
2023-04-09T04:52:41.151Z,101202.48
2023-04-09T04:53:44.832Z,101204.55
2023-04-09T04:54:49.209Z,101202.19
2023-04-09T04:55:55.947Z,101204.00
2023-04-09T04:57:01.700Z,101207.07
2023-04-09T04:58:10.239Z,101209.78
2023-04-09T04:59:19.099Z,101213.04
2023-04-09T05:00:41.399Z,101199.23
2023-04-09T05:01:44.428Z,101205.13
2023-04-09T05:02:48.504Z,101201.28
2023-04-09T05:04:11.392Z,101201.27
2023-04-09T05:05:14.497Z,101207.88
2023-04-09T05:06:23.094Z,101209.77
2023-04-09T05:07:26.012Z,101209.45
2023-04-09T05:08:48.966Z,101202.52
2023-04-09T05:09:52.129Z,101213.15
2023-04-09T05:11:15.278Z,101206.91
2023-04-09T05:12:19.311Z,101206.27
2023-04-09T05:13:25.231Z,101214.02
2023-04-09T05:14:28.257Z,101211.48
2023-04-09T05:15:31.552Z,101211.77
2023-04-09T05:16:34.460Z,101207.30
2023-04-09T05:17:43.208Z,101215.75
2023-04-09T05:18:47.287Z,101213.45
2023-04-09T05:19:53.859Z,101209.53
2023-04-09T05:21:01.405Z,101214.61
2023-04-09T05:22:06.182Z,101206.77
2023-04-09T05:23:10.452Z,101205.70
2023-04-09T05:24:18.057Z,101200.05
2023-04-09T05:25:21.115Z,101203.98
2023-04-09T05:26:24.179Z,101202.27
2023-04-09T05:27:33.146Z,101204.71
2023-04-09T05:28:37.300Z,101204.41
2023-04-09T05:29:49.925Z,101207.95
2023-04-09T05:30:53.350Z,101208.15
2023-04-09T05:31:56.429Z,101205.81
2023-04-09T05:33:04.471Z,101211.14
2023-04-09T05:34:07.467Z,101208.92
2023-04-09T05:35:19.674Z,101212.87
2023-04-09T05:36:22.607Z,101210.35
2023-04-09T05:37:25.801Z,101205.40
2023-04-09T05:38:28.956Z,101206.02
2023-04-09T05:39:33.421Z,101205.58
2023-04-09T05:40:36.735Z,101206.48
2023-04-09T05:41:42.093Z,101208.23
2023-04-09T05:43:08.098Z,101203.14
2023-04-09T05:44:16.938Z,101208.39
2023-04-09T05:45:19.936Z,101210.69
2023-04-09T05:46:25.877Z,101210.16
2023-04-09T05:47:29.781Z,101204.52
2023-04-09T05:48:43.028Z,101203.37
2023-04-09T05:49:47.271Z,101207.70
2023-04-09T05:50:55.513Z,101205.56
2023-04-09T05:52:01.005Z,101206.02
2023-04-09T05:53:05.253Z,101202.27
2023-04-09T05:54:13.916Z,101204.47
2023-04-09T05:55:17.307Z,101206.33
2023-04-09T05:56:28.095Z,101205.52
2023-04-09T05:57:32.748Z,101206.74
2023-04-09T05:58:38.347Z,101206.08
2023-04-09T05:59:41.265Z,101211.04
2023-04-09T06:00:44.143Z,101205.60
2023-04-09T06:01:47.067Z,101208.11
2023-04-09T06:02:50.310Z,101211.69
2023-04-09T06:03:56.082Z,101213.56
2023-04-09T06:05:00.750Z,101215.88
2023-04-09T06:06:03.769Z,101216.55
2023-04-09T06:07:06.644Z,101214.75
2023-04-09T06:08:09.515Z,101215.73
2023-04-09T06:09:12.794Z,101220.45
2023-04-09T06:10:16.009Z,101220.91
2023-04-09T06:11:18.920Z,101221.39
2023-04-09T06:12:22.196Z,101221.41
2023-04-09T06:13:25.041Z,101221.94
2023-04-09T06:14:28.037Z,101221.08
2023-04-09T06:15:30.912Z,101221.95
2023-04-09T06:16:33.837Z,101222.05
2023-04-09T06:17:36.938Z,101222.79
2023-04-09T06:18:39.835Z,101222.50
2023-04-09T06:19:42.684Z,101223.82
2023-04-09T06:20:45.578Z,101224.14
2023-04-09T06:21:48.427Z,101228.05
2023-04-09T06:22:51.285Z,101222.52
2023-04-09T06:23:54.513Z,101224.27
2023-04-09T06:24:57.665Z,101220.73
2023-04-09T06:26:02.641Z,101223.83
2023-04-09T06:27:06.020Z,101226.83
2023-04-09T06:28:08.954Z,101227.02
2023-04-09T06:29:11.824Z,101224.46
2023-04-09T06:30:14.671Z,101226.02
2023-04-09T06:31:17.805Z,101228.50
2023-04-09T06:32:20.850Z,101231.02
2023-04-09T06:33:24.350Z,101232.48
2023-04-09T06:34:27.191Z,101233.90
2023-04-09T06:35:30.086Z,101232.75
2023-04-09T06:36:33.529Z,101232.75
2023-04-09T06:37:36.524Z,101230.48
2023-04-09T06:38:39.483Z,101229.54
2023-04-09T06:39:47.708Z,101230.64
2023-04-09T06:41:01.255Z,101230.30
2023-04-09T06:42:04.148Z,101229.98
2023-04-09T06:43:15.648Z,101228.92
2023-04-09T06:44:26.451Z,101227.88
2023-04-09T06:45:29.816Z,101227.20
2023-04-09T06:46:32.729Z,101226.74
2023-04-09T06:47:36.493Z,101225.95
2023-04-09T06:48:39.705Z,101226.07
2023-04-09T06:49:42.563Z,101226.30
2023-04-09T06:50:45.791Z,101229.19
2023-04-09T06:51:48.643Z,101228.63
2023-04-09T06:52:52.935Z,101229.17
2023-04-09T06:53:55.953Z,101229.29
2023-04-09T06:54:59.085Z,101229.06
2023-04-09T06:56:02.009Z,101229.96
2023-04-09T06:57:06.669Z,101233.63
2023-04-09T06:58:09.701Z,101232.04
2023-04-09T06:59:12.616Z,101233.98
2023-04-09T07:00:15.874Z,101231.73
2023-04-09T07:01:19.082Z,101234.23
2023-04-09T07:02:22.151Z,101233.70
2023-04-09T07:03:27.935Z,101234.34
2023-04-09T07:04:31.190Z,101236.16
2023-04-09T07:05:34.099Z,101237.66
2023-04-09T07:06:37.006Z,101240.09
2023-04-09T07:07:39.853Z,101242.11
2023-04-09T07:08:42.760Z,101245.21
2023-04-09T07:09:46.167Z,101241.83
2023-04-09T07:10:49.459Z,101243.86
2023-04-09T07:11:52.513Z,101245.27
2023-04-09T07:12:55.553Z,101245.10
2023-04-09T07:13:59.613Z,101244.13
2023-04-09T07:15:04.653Z,101246.83
2023-04-09T07:16:07.572Z,101246.57
2023-04-09T07:17:10.434Z,101249.04
2023-04-09T07:18:13.374Z,101249.46
2023-04-09T07:19:16.398Z,101254.87
2023-04-09T07:20:19.348Z,101251.84
2023-04-09T07:21:22.656Z,101255.39
2023-04-09T07:22:27.368Z,101255.61
2023-04-09T07:23:30.712Z,101256.14
2023-04-09T07:24:33.700Z,101255.39
2023-04-09T07:25:36.636Z,101252.06
2023-04-09T07:26:39.660Z,101255.91
2023-04-09T07:27:45.416Z,101251.81
2023-04-09T07:28:48.269Z,101253.92
2023-04-09T07:29:51.306Z,101254.65
2023-04-09T07:30:54.204Z,101253.93
2023-04-09T07:31:57.504Z,101254.83
2023-04-09T07:33:00.802Z,101256.14
2023-04-09T07:34:03.689Z,101251.70
2023-04-09T07:35:09.943Z,101252.86
2023-04-09T07:36:13.057Z,101252.04
2023-04-09T07:37:16.348Z,101253.70
2023-04-09T07:38:19.242Z,101256.90
2023-04-09T07:39:22.416Z,101255.98
2023-04-09T07:40:25.312Z,101258.45
2023-04-09T07:41:28.170Z,101259.44
2023-04-09T07:42:31.093Z,101259.21
2023-04-09T07:43:34.312Z,101260.88
2023-04-09T07:44:37.503Z,101258.45
2023-04-09T07:45:40.424Z,101253.35
2023-04-09T07:46:44.086Z,101256.39
2023-04-09T07:47:47.054Z,101249.95
2023-04-09T07:48:50.537Z,101252.37
2023-04-09T07:49:53.804Z,101252.75
2023-04-09T07:50:56.858Z,101254.88
2023-04-09T07:52:00.510Z,101251.52
2023-04-09T07:53:03.406Z,101251.45
2023-04-09T07:54:06.565Z,101256.36
2023-04-09T07:55:09.577Z,101259.96
2023-04-09T07:56:12.439Z,101260.19
2023-04-09T07:57:15.369Z,101262.38
2023-04-09T07:58:18.228Z,101259.95
2023-04-09T07:59:21.062Z,101258.18
2023-04-09T08:00:23.997Z,101258.98
2023-04-09T08:01:26.970Z,101259.41
2023-04-09T08:02:30.460Z,101260.11
2023-04-09T08:03:33.706Z,101261.96
2023-04-09T08:04:36.924Z,101260.09
2023-04-09T08:05:40.553Z,101258.42
2023-04-09T08:06:46.893Z,101260.83
2023-04-09T08:07:51.238Z,101262.27
2023-04-09T08:08:54.481Z,101260.59
2023-04-09T08:09:57.547Z,101263.73
2023-04-09T08:11:00.417Z,101267.73
2023-04-09T08:12:04.110Z,101268.07
2023-04-09T08:13:07.016Z,101268.89
2023-04-09T08:14:12.970Z,101268.86
2023-04-09T08:15:16.181Z,101267.13
2023-04-09T08:16:19.854Z,101266.49
2023-04-09T08:17:23.394Z,101266.12
2023-04-09T08:18:26.256Z,101263.23
2023-04-09T08:19:29.101Z,101265.81
2023-04-09T08:20:33.137Z,101262.65
2023-04-09T08:21:43.354Z,101260.92
2023-04-09T08:22:46.850Z,101253.39
2023-04-09T08:23:49.832Z,101249.99
2023-04-09T08:24:53.395Z,101249.44
2023-04-09T08:25:56.527Z,101252.61
2023-04-09T08:26:59.376Z,101256.73
2023-04-09T08:28:02.483Z,101255.75
2023-04-09T08:29:05.491Z,101253.34
2023-04-09T08:30:09.100Z,101252.68
2023-04-09T08:31:11.945Z,101253.97
2023-04-09T08:32:15.411Z,101254.91
2023-04-09T08:33:18.338Z,101261.50
2023-04-09T08:34:22.282Z,101261.79
2023-04-09T08:35:25.283Z,101262.86
2023-04-09T08:36:28.532Z,101265.88
2023-04-09T08:37:32.530Z,101264.42
2023-04-09T08:38:35.457Z,101261.66
2023-04-09T08:39:38.394Z,101257.05
2023-04-09T08:40:41.406Z,101256.00
2023-04-09T08:41:45.505Z,101254.64
2023-04-09T08:42:55.355Z,101252.82
2023-04-09T08:43:59.513Z,101253.41
2023-04-09T08:45:06.288Z,101255.45
2023-04-09T08:46:10.791Z,101259.77
2023-04-09T08:47:13.793Z,101260.38
2023-04-09T08:48:18.248Z,101260.41
2023-04-09T08:49:21.715Z,101255.23
2023-04-09T08:50:24.605Z,101251.70
2023-04-09T08:51:28.813Z,101250.16
2023-04-09T08:52:35.367Z,101252.33
2023-04-09T08:53:39.133Z,101250.45
2023-04-09T08:54:42.016Z,101246.73
2023-04-09T08:55:48.585Z,101246.38
2023-04-09T08:56:51.460Z,101247.27
2023-04-09T08:57:54.330Z,101242.79
2023-04-09T08:58:57.686Z,101244.80
2023-04-09T09:00:00.563Z,101237.90
2023-04-09T09:01:03.518Z,101239.67
2023-04-09T09:02:07.746Z,101242.30
2023-04-09T09:03:16.101Z,101247.98
2023-04-09T09:04:19.152Z,101245.51
2023-04-09T09:05:39.699Z,101246.71
2023-04-09T09:06:42.620Z,101249.21
2023-04-09T09:07:54.730Z,101250.41
2023-04-09T09:09:01.047Z,101253.69
2023-04-09T09:10:04.601Z,101254.67
2023-04-09T09:11:07.648Z,101253.92
2023-04-09T09:12:10.632Z,101257.04
2023-04-09T09:13:22.716Z,101253.69
2023-04-09T09:14:25.738Z,101255.44
2023-04-09T09:15:30.153Z,101256.46
2023-04-09T09:16:35.687Z,101257.73
2023-04-09T09:17:54.885Z,101262.39
2023-04-09T09:18:57.932Z,101260.58
2023-04-09T09:20:19.720Z,101260.34
2023-04-09T09:21:23.446Z,101263.83
2023-04-09T09:22:26.360Z,101266.69
2023-04-09T09:23:36.954Z,101263.55
2023-04-09T09:24:50.441Z,101266.43
2023-04-09T09:25:53.553Z,101268.89
2023-04-09T09:26:57.501Z,101271.66
2023-04-09T09:28:11.569Z,101268.84
2023-04-09T09:29:14.799Z,101271.71
2023-04-09T09:30:26.198Z,101271.77
2023-04-09T09:31:29.411Z,101283.14
2023-04-09T09:32:33.414Z,101277.13
2023-04-09T09:33:36.596Z,101271.64
2023-04-09T09:34:39.516Z,101269.95
2023-04-09T09:35:49.569Z,101272.70
2023-04-09T09:36:52.626Z,101270.27
2023-04-09T09:38:04.245Z,101272.15
2023-04-09T09:39:13.219Z,101272.15
2023-04-09T09:40:28.928Z,101271.45
2023-04-09T09:41:31.981Z,101268.27
2023-04-09T09:42:34.930Z,101267.79
2023-04-09T09:43:42.798Z,101268.75
2023-04-09T09:44:45.737Z,101268.86
2023-04-09T09:45:48.998Z,101270.66
2023-04-09T09:46:51.997Z,101267.80
2023-04-09T09:47:55.029Z,101267.97
2023-04-09T09:48:57.959Z,101267.33
2023-04-09T09:50:01.068Z,101272.29
2023-04-09T09:51:11.926Z,101270.56
2023-04-09T09:52:15.847Z,101270.79
2023-04-09T09:53:23.190Z,101269.22
2023-04-09T09:54:31.412Z,101269.61
2023-04-09T09:55:39.221Z,101267.55
2023-04-09T09:56:44.086Z,101268.92
2023-04-09T09:57:49.342Z,101265.12
2023-04-09T09:59:03.917Z,101263.22
2023-04-09T10:00:12.290Z,101261.45
2023-04-09T10:01:18.377Z,101262.14
2023-04-09T10:02:24.465Z,101260.14
2023-04-09T10:03:31.355Z,101256.56
2023-04-09T10:04:38.270Z,101260.16
2023-04-09T10:05:42.075Z,101258.04
2023-04-09T10:06:46.298Z,101258.91
2023-04-09T10:07:49.733Z,101259.63
2023-04-09T10:08:56.838Z,101256.44
2023-04-09T10:10:02.277Z,101258.18
2023-04-09T10:11:07.839Z,101258.02
2023-04-09T10:12:12.196Z,101253.63
2023-04-09T10:13:21.971Z,101250.48
2023-04-09T10:14:26.341Z,101251.95
2023-04-09T10:15:29.749Z,101251.52
2023-04-09T10:16:33.032Z,101249.50
2023-04-09T10:17:36.871Z,101248.26
2023-04-09T10:18:42.303Z,101249.13
2023-04-09T10:19:55.796Z,101247.15
2023-04-09T10:21:04.766Z,101251.14
2023-04-09T10:22:13.374Z,101249.40
2023-04-09T10:23:37.113Z,101244.73
2023-04-09T10:24:40.993Z,101244.11
2023-04-09T10:25:44.322Z,101245.36
2023-04-09T10:26:47.300Z,101243.73
2023-04-09T10:28:17.538Z,101244.73
2023-04-09T10:29:28.251Z,101243.82
2023-04-09T10:30:35.279Z,101247.23
2023-04-09T10:31:53.149Z,101244.02
2023-04-09T10:32:56.617Z,101250.11
2023-04-09T10:34:04.723Z,101245.66
2023-04-09T10:35:09.547Z,101242.45
2023-04-09T10:36:13.190Z,101243.50
2023-04-09T10:37:24.675Z,101244.89
2023-04-09T10:38:53.688Z,101243.86
2023-04-09T10:39:57.982Z,101245.02
2023-04-09T10:41:07.207Z,101243.22
2023-04-09T10:42:22.110Z,101243.84
2023-04-09T10:43:25.037Z,101244.91
2023-04-09T10:44:28.824Z,101243.58
2023-04-09T10:45:42.117Z,101245.79
2023-04-09T10:46:46.156Z,101250.29
2023-04-09T10:47:53.602Z,101248.88
2023-04-09T10:49:19.337Z,101243.91
2023-04-09T10:50:26.647Z,101244.57
2023-04-09T10:51:35.318Z,101247.15
2023-04-09T10:52:41.098Z,101241.82
2023-04-09T10:53:43.949Z,101241.10
2023-04-09T10:54:47.192Z,101243.88
2023-04-09T10:55:52.147Z,101242.88
2023-04-09T10:57:07.133Z,101239.86
2023-04-09T10:58:13.458Z,101241.83
2023-04-09T10:59:16.610Z,101239.80
2023-04-09T11:00:19.529Z,101241.24
2023-04-09T11:01:22.916Z,101241.52
2023-04-09T11:02:32.108Z,101240.75
2023-04-09T11:03:44.790Z,101241.24
2023-04-09T11:05:13.539Z,101238.34
2023-04-09T11:06:20.807Z,101243.97
2023-04-09T11:07:25.242Z,101241.66
2023-04-09T11:08:30.262Z,101242.98
2023-04-09T11:09:37.119Z,101243.59
2023-04-09T11:10:44.095Z,101242.39
2023-04-09T11:11:53.313Z,101239.46
2023-04-09T11:12:56.215Z,101235.59
2023-04-09T11:14:03.321Z,101241.24
2023-04-09T11:15:07.026Z,101235.56
2023-04-09T11:16:12.139Z,101234.09
2023-04-09T11:17:26.300Z,101235.11
2023-04-09T11:18:34.891Z,101233.83
2023-04-09T11:19:37.818Z,101231.82
2023-04-09T11:20:40.849Z,101229.85
2023-04-09T11:21:46.421Z,101227.39
2023-04-09T11:22:53.854Z,101231.80
2023-04-09T11:23:56.763Z,101228.77
2023-04-09T11:24:59.629Z,101228.98
2023-04-09T11:26:02.820Z,101227.88
2023-04-09T11:27:05.756Z,101226.32
2023-04-09T11:28:08.764Z,101234.80
2023-04-09T11:29:11.771Z,101231.30
2023-04-09T11:30:15.418Z,101229.01
2023-04-09T11:31:18.401Z,101230.72
2023-04-09T11:32:21.349Z,101233.36
2023-04-09T11:33:32.004Z,101231.64
2023-04-09T11:34:34.851Z,101232.02
2023-04-09T11:35:37.881Z,101230.98
2023-04-09T11:36:41.176Z,101230.42
2023-04-09T11:37:45.413Z,101234.77
2023-04-09T11:38:50.901Z,101234.97
2023-04-09T11:39:57.344Z,101233.09
2023-04-09T11:41:01.830Z,101234.04
2023-04-09T11:42:04.726Z,101233.63
2023-04-09T11:43:08.341Z,101231.71
2023-04-09T11:44:11.246Z,101229.14
2023-04-09T11:45:15.651Z,101230.08
2023-04-09T11:46:18.651Z,101229.92
2023-04-09T11:47:22.297Z,101228.06
2023-04-09T11:48:25.338Z,101226.26
2023-04-09T11:49:28.323Z,101228.02
2023-04-09T11:50:32.256Z,101227.21
2023-04-09T11:51:35.815Z,101230.45
2023-04-09T11:52:41.390Z,101228.56
2023-04-09T11:53:44.198Z,101228.78
2023-04-09T11:54:50.405Z,101229.73
2023-04-09T11:55:53.688Z,101227.60
2023-04-09T11:56:59.352Z,101222.86
2023-04-09T11:58:03.068Z,101228.37
2023-04-09T11:59:06.360Z,101229.34
2023-04-09T12:00:14.372Z,101226.79
2023-04-09T12:01:17.283Z,101225.09
2023-04-09T12:02:20.542Z,101226.16
2023-04-09T12:03:31.351Z,101225.71
2023-04-09T12:04:34.621Z,101226.06
2023-04-09T12:05:39.863Z,101225.82
2023-04-09T12:06:44.876Z,101221.50
2023-04-09T12:07:55.381Z,101217.86
2023-04-09T12:08:59.636Z,101215.58
2023-04-09T12:10:10.527Z,101212.55
2023-04-09T12:11:16.242Z,101211.64
2023-04-09T12:12:24.160Z,101223.45
2023-04-09T12:13:33.475Z,101215.34
2023-04-09T12:14:36.493Z,101216.41
2023-04-09T12:15:43.399Z,101214.90
2023-04-09T12:16:51.549Z,101211.77
2023-04-09T12:17:55.965Z,101217.48
2023-04-09T12:19:09.238Z,101218.13
2023-04-09T12:20:12.186Z,101216.39
2023-04-09T12:21:16.179Z,101219.48
2023-04-09T12:22:20.957Z,101219.40
2023-04-09T12:23:23.811Z,101219.98
2023-04-09T12:24:28.190Z,101217.01
2023-04-09T12:25:45.467Z,101215.98
2023-04-09T12:26:49.716Z,101218.06
2023-04-09T12:27:52.936Z,101215.02
2023-04-09T12:28:55.786Z,101214.33